sensor_id;sensor_type;location;lat;lon;timestamp;pressure;altitude;pressure_sealevel;temperature;humidity
52511;BME280;63918;51.700;17.998;2022-12-11T00:00:24;99154.88;;;0.50;100.00
52511;BME280;63918;51.700;17.998;2022-12-11T00:03:10;99148.64;;;0.40;100.00
52511;BME280;63918;51.700;17.998;2022-12-11T00:05:38;99141.45;;;0.14;100.00
52511;BME280;63918;51.700;17.998;2022-12-11T00:08:05;99139.50;;;0.09;100.00
52511;BME280;63918;51.700;17.998;2022-12-11T00:10:32;99139.34;;;0.22;100.00
52511;BME280;63918;51.700;17.998;2022-12-11T00:12:59;99140.34;;;0.22;100.00
52511;BME280;63918;51.700;17.998;2022-12-11T00:15:27;99134.08;;;0.19;100.00
52511;BME280;63918;51.700;17.998;2022-12-11T00:17:53;99133.27;;;0.09;100.00
52511;BME280;63918;51.700;17.998;2022-12-11T00:20:20;99130.89;;;0.05;100.00
52511;BME280;63918;51.700;17.998;2022-12-11T00:22:47;99130.08;;;0.07;100.00
52511;BME280;63918;51.700;17.998;2022-12-11T00:25:13;99124.91;;;0.08;100.00
52511;BME280;63918;51.700;17.998;2022-12-11T00:27:40;99125.30;;;0.09;100.00
52511;BME280;63918;51.700;17.998;2022-12-11T00:30:07;99130.58;;;-0.06;100.00
52511;BME280;63918;51.700;17.998;2022-12-11T00:32:33;99138.09;;;-0.14;100.00
52511;BME280;63918;51.700;17.998;2022-12-11T00:35:00;99141.09;;;-0.08;100.00
52511;BME280;63918;51.700;17.998;2022-12-11T00:37:27;99141.08;;;-0.07;100.00
52511;BME280;63918;51.700;17.998;2022-12-11T00:39:53;99143.69;;;0.02;100.00
52511;BME280;63918;51.700;17.998;2022-12-11T00:42:20;99141.80;;;0.00;100.00
52511;BME280;63918;51.700;17.998;2022-12-11T00:44:46;99143.62;;;0.03;100.00
52511;BME280;63918;51.700;17.998;2022-12-11T00:47:13;99145.48;;;0.00;100.00
52511;BME280;63918;51.700;17.998;2022-12-11T00:49:39;99141.15;;;0.00;100.00
52511;BME280;63918;51.700;17.998;2022-12-11T00:52:06;99151.96;;;0.04;100.00
52511;BME280;63918;51.700;17.998;2022-12-11T00:54:33;99151.88;;;0.00;100.00
52511;BME280;63918;51.700;17.998;2022-12-11T00:56:59;99150.48;;;0.04;100.00
52511;BME280;63918;51.700;17.998;2022-12-11T00:59:27;99150.27;;;0.16;100.00
52511;BME280;63918;51.700;17.998;2022-12-11T01:01:53;99144.41;;;0.28;100.00
52511;BME280;63918;51.700;17.998;2022-12-11T01:04:20;99145.77;;;0.38;100.00
52511;BME280;63918;51.700;17.998;2022-12-11T01:06:46;99144.92;;;0.24;100.00
52511;BME280;63918;51.700;17.998;2022-12-11T01:09:13;99144.14;;;-0.05;100.00
52511;BME280;63918;51.700;17.998;2022-12-11T01:11:58;99144.43;;;-0.07;100.00
52511;BME280;63918;51.700;17.998;2022-12-11T01:14:25;99146.47;;;-0.04;100.00
52511;BME280;63918;51.700;17.998;2022-12-11T01:16:51;99144.96;;;-0.17;100.00
52511;BME280;63918;51.700;17.998;2022-12-11T01:19:19;99145.82;;;-0.14;100.00
52511;BME280;63918;51.700;17.998;2022-12-11T01:21:45;99140.73;;;-0.18;100.00
52511;BME280;63918;51.700;17.998;2022-12-11T01:24:12;99137.30;;;-0.16;100.00
52511;BME280;63918;51.700;17.998;2022-12-11T01:26:38;99138.67;;;-0.14;100.00
52511;BME280;63918;51.700;17.998;2022-12-11T01:29:05;99137.02;;;-0.16;100.00
52511;BME280;63918;51.700;17.998;2022-12-11T01:31:31;99140.09;;;-0.02;100.00
52511;BME280;63918;51.700;17.998;2022-12-11T01:33:59;99136.87;;;0.03;100.00
52511;BME280;63918;51.700;17.998;2022-12-11T01:36:26;99134.23;;;0.13;100.00
52511;BME280;63918;51.700;17.998;2022-12-11T01:38:52;99136.52;;;-0.07;100.00
52511;BME280;63918;51.700;17.998;2022-12-11T01:41:20;99137.23;;;-0.03;100.00
52511;BME280;63918;51.700;17.998;2022-12-11T01:44:00;99137.71;;;-0.12;100.00
52511;BME280;63918;51.700;17.998;2022-12-11T01:46:29;99137.94;;;-0.00;100.00
52511;BME280;63918;51.700;17.998;2022-12-11T01:48:56;99135.93;;;0.15;100.00
52511;BME280;63918;51.700;17.998;2022-12-11T01:51:23;99134.84;;;0.11;100.00
52511;BME280;63918;51.700;17.998;2022-12-11T01:53:57;99132.43;;;-0.12;100.00
52511;BME280;63918;51.700;17.998;2022-12-11T01:56:26;99133.40;;;-0.06;100.00
52511;BME280;63918;51.700;17.998;2022-12-11T01:58:59;99120.79;;;-0.06;100.00
52511;BME280;63918;51.700;17.998;2022-12-11T02:01:50;99117.31;;;-0.10;100.00
52511;BME280;63918;51.700;17.998;2022-12-11T02:04:20;99117.50;;;-0.19;100.00
52511;BME280;63918;51.700;17.998;2022-12-11T02:06:50;99118.56;;;0.00;100.00
52511;BME280;63918;51.700;17.998;2022-12-11T02:09:20;99108.98;;;0.04;100.00
52511;BME280;63918;51.700;17.998;2022-12-11T02:14:51;99101.77;;;-0.05;100.00
52511;BME280;63918;51.700;17.998;2022-12-11T02:17:25;99096.95;;;0.01;100.00
52511;BME280;63918;51.700;17.998;2022-12-11T02:20:09;99090.38;;;0.20;100.00
52511;BME280;63918;51.700;17.998;2022-12-11T02:22:58;99088.24;;;0.09;100.00
52511;BME280;63918;51.700;17.998;2022-12-11T02:25:51;99083.60;;;-0.27;100.00
52511;BME280;63918;51.700;17.998;2022-12-11T02:28:30;99077.52;;;-0.19;100.00
52511;BME280;63918;51.700;17.998;2022-12-11T02:34:00;99077.75;;;-0.34;100.00
52511;BME280;63918;51.700;17.998;2022-12-11T02:36:32;99082.52;;;-0.23;100.00
52511;BME280;63918;51.700;17.998;2022-12-11T02:39:00;99082.30;;;-0.36;100.00
52511;BME280;63918;51.700;17.998;2022-12-11T02:41:29;99081.14;;;-0.35;100.00
52511;BME280;63918;51.700;17.998;2022-12-11T02:43:58;99083.98;;;-0.22;100.00
52511;BME280;63918;51.700;17.998;2022-12-11T02:46:28;99082.77;;;-0.26;100.00
52511;BME280;63918;51.700;17.998;2022-12-11T02:48:56;99086.05;;;-0.14;100.00
52511;BME280;63918;51.700;17.998;2022-12-11T02:51:27;99081.98;;;0.00;100.00
52511;BME280;63918;51.700;17.998;2022-12-11T02:53:57;99084.52;;;0.03;100.00
52511;BME280;63918;51.700;17.998;2022-12-11T02:56:39;99081.34;;;0.05;100.00
52511;BME280;63918;51.700;17.998;2022-12-11T02:59:13;99078.63;;;-0.15;100.00
52511;BME280;63918;51.700;17.998;2022-12-11T03:01:41;99082.88;;;-0.23;100.00
52511;BME280;63918;51.700;17.998;2022-12-11T03:04:08;99087.30;;;-0.21;100.00
52511;BME280;63918;51.700;17.998;2022-12-11T03:06:38;99087.23;;;-0.22;100.00
52511;BME280;63918;51.700;17.998;2022-12-11T03:09:08;99089.45;;;-0.23;100.00
52511;BME280;63918;51.700;17.998;2022-12-11T03:11:35;99088.23;;;-0.25;100.00
52511;BME280;63918;51.700;17.998;2022-12-11T03:14:01;99088.33;;;-0.18;100.00
52511;BME280;63918;51.700;17.998;2022-12-11T03:16:33;99088.89;;;-0.19;100.00
52511;BME280;63918;51.700;17.998;2022-12-11T03:21:51;99082.90;;;-0.06;100.00
52511;BME280;63918;51.700;17.998;2022-12-11T03:24:27;99081.80;;;-0.21;100.00
52511;BME280;63918;51.700;17.998;2022-12-11T03:27:00;99078.80;;;-0.19;100.00
52511;BME280;63918;51.700;17.998;2022-12-11T03:29:36;99079.73;;;-0.18;100.00
52511;BME280;63918;51.700;17.998;2022-12-11T03:32:09;99082.09;;;-0.23;100.00
52511;BME280;63918;51.700;17.998;2022-12-11T03:34:42;99088.54;;;-0.36;100.00
52511;BME280;63918;51.700;17.998;2022-12-11T03:37:11;99088.15;;;-0.45;100.00
52511;BME280;63918;51.700;17.998;2022-12-11T03:39:43;99088.83;;;-0.48;100.00
52511;BME280;63918;51.700;17.998;2022-12-11T03:42:12;99090.27;;;-0.50;100.00
52511;BME280;63918;51.700;17.998;2022-12-11T03:44:43;99093.41;;;-0.54;100.00
52511;BME280;63918;51.700;17.998;2022-12-11T03:47:16;99093.96;;;-0.34;100.00
52511;BME280;63918;51.700;17.998;2022-12-11T03:49:44;99092.80;;;-0.37;100.00
52511;BME280;63918;51.700;17.998;2022-12-11T03:52:13;99089.10;;;-0.33;100.00
52511;BME280;63918;51.700;17.998;2022-12-11T03:54:44;99087.10;;;-0.56;100.00
52511;BME280;63918;51.700;17.998;2022-12-11T03:57:15;99081.87;;;-0.57;100.00
52511;BME280;63918;51.700;17.998;2022-12-11T03:59:42;99081.88;;;-0.51;100.00
52511;BME280;63918;51.700;17.998;2022-12-11T04:02:09;99082.41;;;-0.56;100.00
52511;BME280;63918;51.700;17.998;2022-12-11T04:04:40;99079.54;;;-0.66;100.00
52511;BME280;63918;51.700;17.998;2022-12-11T04:07:07;99080.08;;;-0.63;100.00
52511;BME280;63918;51.700;17.998;2022-12-11T04:09:34;99080.64;;;-0.59;100.00
52511;BME280;63918;51.700;17.998;2022-12-11T04:12:01;99077.74;;;-0.82;100.00
52511;BME280;63918;51.700;17.998;2022-12-11T04:14:27;99077.48;;;-0.89;100.00
52511;BME280;63918;51.700;17.998;2022-12-11T04:17:13;99076.23;;;-0.86;100.00
52511;BME280;63918;51.700;17.998;2022-12-11T04:19:59;99078.02;;;-0.79;100.00
52511;BME280;63918;51.700;17.998;2022-12-11T04:22:44;99076.58;;;-0.72;100.00
52511;BME280;63918;51.700;17.998;2022-12-11T04:25:31;99075.88;;;-0.80;100.00
52511;BME280;63918;51.700;17.998;2022-12-11T04:27:58;99070.34;;;-0.89;100.00
52511;BME280;63918;51.700;17.998;2022-12-11T04:30:25;99067.67;;;-0.84;100.00
52511;BME280;63918;51.700;17.998;2022-12-11T04:32:52;99068.95;;;-0.84;100.00
52511;BME280;63918;51.700;17.998;2022-12-11T04:35:20;99065.77;;;-0.88;100.00
52511;BME280;63918;51.700;17.998;2022-12-11T04:37:47;99066.73;;;-0.89;100.00
52511;BME280;63918;51.700;17.998;2022-12-11T04:40:17;99064.13;;;-0.93;100.00
52511;BME280;63918;51.700;17.998;2022-12-11T04:42:44;99062.69;;;-0.83;100.00
52511;BME280;63918;51.700;17.998;2022-12-11T04:45:11;99063.80;;;-0.69;100.00
52511;BME280;63918;51.700;17.998;2022-12-11T04:47:39;99052.14;;;-0.87;100.00
52511;BME280;63918;51.700;17.998;2022-12-11T04:50:08;99053.48;;;-0.85;100.00
52511;BME280;63918;51.700;17.998;2022-12-11T04:52:35;99059.35;;;-0.92;100.00
52511;BME280;63918;51.700;17.998;2022-12-11T04:55:03;99054.50;;;-0.75;100.00
52511;BME280;63918;51.700;17.998;2022-12-11T04:57:30;99055.04;;;-0.84;100.00
52511;BME280;63918;51.700;17.998;2022-12-11T04:59:57;99053.14;;;-0.95;100.00
52511;BME280;63918;51.700;17.998;2022-12-11T05:02:23;99053.70;;;-0.99;100.00
52511;BME280;63918;51.700;17.998;2022-12-11T05:04:50;99053.95;;;-0.95;100.00
52511;BME280;63918;51.700;17.998;2022-12-11T05:07:16;99052.88;;;-0.81;100.00
52511;BME280;63918;51.700;17.998;2022-12-11T05:09:43;99046.27;;;-0.73;100.00
52511;BME280;63918;51.700;17.998;2022-12-11T05:12:09;99044.59;;;-0.77;100.00
52511;BME280;63918;51.700;17.998;2022-12-11T05:14:35;99044.66;;;-0.86;100.00
52511;BME280;63918;51.700;17.998;2022-12-11T05:17:02;99042.27;;;-0.88;100.00
52511;BME280;63918;51.700;17.998;2022-12-11T05:19:28;99043.41;;;-0.90;100.00
52511;BME280;63918;51.700;17.998;2022-12-11T05:21:55;99038.33;;;-0.83;100.00
52511;BME280;63918;51.700;17.998;2022-12-11T05:24:21;99032.73;;;-0.80;100.00
52511;BME280;63918;51.700;17.998;2022-12-11T05:26:48;99028.44;;;-0.69;100.00
52511;BME280;63918;51.700;17.998;2022-12-11T05:29:14;99026.04;;;-0.72;100.00
52511;BME280;63918;51.700;17.998;2022-12-11T05:31:41;99026.49;;;-0.83;100.00
52511;BME280;63918;51.700;17.998;2022-12-11T05:34:07;99027.81;;;-0.91;100.00
52511;BME280;63918;51.700;17.998;2022-12-11T05:36:34;99032.79;;;-0.85;100.00
52511;BME280;63918;51.700;17.998;2022-12-11T05:39:02;99036.27;;;-0.72;100.00
52511;BME280;63918;51.700;17.998;2022-12-11T05:41:30;99033.38;;;-0.88;100.00
52511;BME280;63918;51.700;17.998;2022-12-11T05:43:57;99030.27;;;-0.78;100.00
52511;BME280;63918;51.700;17.998;2022-12-11T05:46:25;99037.23;;;-0.75;100.00
52511;BME280;63918;51.700;17.998;2022-12-11T05:48:57;99038.18;;;-0.82;100.00
52511;BME280;63918;51.700;17.998;2022-12-11T05:51:25;99032.05;;;-0.75;100.00
52511;BME280;63918;51.700;17.998;2022-12-11T05:53:53;99030.61;;;-0.87;100.00
52511;BME280;63918;51.700;17.998;2022-12-11T05:56:22;99031.95;;;-0.89;100.00
52511;BME280;63918;51.700;17.998;2022-12-11T05:58:49;99031.90;;;-0.80;100.00
52511;BME280;63918;51.700;17.998;2022-12-11T06:01:20;99031.10;;;-0.62;100.00
52511;BME280;63918;51.700;17.998;2022-12-11T06:03:47;99035.09;;;-0.43;100.00
52511;BME280;63918;51.700;17.998;2022-12-11T06:06:14;99034.06;;;-0.68;100.00
52511;BME280;63918;51.700;17.998;2022-12-11T06:08:41;99040.98;;;-0.76;100.00
52511;BME280;63918;51.700;17.998;2022-12-11T06:11:08;99039.30;;;-0.83;100.00
52511;BME280;63918;51.700;17.998;2022-12-11T06:13:34;99039.98;;;-0.83;100.00
52511;BME280;63918;51.700;17.998;2022-12-11T06:16:02;99042.34;;;-0.87;100.00
52511;BME280;63918;51.700;17.998;2022-12-11T06:18:29;99041.45;;;-0.79;100.00
52511;BME280;63918;51.700;17.998;2022-12-11T06:20:55;99041.54;;;-0.75;100.00
52511;BME280;63918;51.700;17.998;2022-12-11T06:23:22;99043.36;;;-0.60;100.00
52511;BME280;63918;51.700;17.998;2022-12-11T06:25:49;99040.91;;;-0.49;100.00
52511;BME280;63918;51.700;17.998;2022-12-11T06:28:15;99036.40;;;-0.61;100.00
52511;BME280;63918;51.700;17.998;2022-12-11T06:30:42;99038.08;;;-0.67;100.00
52511;BME280;63918;51.700;17.998;2022-12-11T06:33:10;99034.17;;;-0.70;100.00
52511;BME280;63918;51.700;17.998;2022-12-11T06:35:36;99031.23;;;-0.73;100.00
52511;BME280;63918;51.700;17.998;2022-12-11T06:38:03;99033.33;;;-0.87;100.00
52511;BME280;63918;51.700;17.998;2022-12-11T06:40:29;99024.84;;;-0.90;100.00
52511;BME280;63918;51.700;17.998;2022-12-11T06:42:56;99038.02;;;-0.93;100.00
52511;BME280;63918;51.700;17.998;2022-12-11T06:45:22;99041.70;;;-0.95;100.00
52511;BME280;63918;51.700;17.998;2022-12-11T06:47:48;99042.77;;;-0.90;100.00
52511;BME280;63918;51.700;17.998;2022-12-11T06:50:15;99044.73;;;-0.94;100.00
52511;BME280;63918;51.700;17.998;2022-12-11T06:52:41;99044.08;;;-0.88;100.00
52511;BME280;63918;51.700;17.998;2022-12-11T06:55:08;99038.58;;;-0.83;100.00
52511;BME280;63918;51.700;17.998;2022-12-11T06:57:35;99046.08;;;-1.01;100.00
52511;BME280;63918;51.700;17.998;2022-12-11T07:00:02;99047.86;;;-1.05;100.00
52511;BME280;63918;51.700;17.998;2022-12-11T07:02:29;99050.10;;;-1.03;100.00
52511;BME280;63918;51.700;17.998;2022-12-11T07:04:56;99050.06;;;-0.99;100.00
52511;BME280;63918;51.700;17.998;2022-12-11T07:07:22;99049.14;;;-1.00;100.00
52511;BME280;63918;51.700;17.998;2022-12-11T07:09:48;99054.29;;;-1.01;100.00
52511;BME280;63918;51.700;17.998;2022-12-11T07:12:15;99048.08;;;-1.00;100.00
52511;BME280;63918;51.700;17.998;2022-12-11T07:14:42;99050.45;;;-1.04;100.00
52511;BME280;63918;51.700;17.998;2022-12-11T07:17:08;99048.25;;;-1.12;100.00
52511;BME280;63918;51.700;17.998;2022-12-11T07:19:34;99044.82;;;-1.17;100.00
52511;BME280;63918;51.700;17.998;2022-12-11T07:22:01;99053.66;;;-1.08;100.00
52511;BME280;63918;51.700;17.998;2022-12-11T07:24:27;99056.95;;;-1.13;100.00
52511;BME280;63918;51.700;17.998;2022-12-11T07:26:54;99052.41;;;-1.06;100.00
52511;BME280;63918;51.700;17.998;2022-12-11T07:29:20;99052.47;;;-0.92;100.00
52511;BME280;63918;51.700;17.998;2022-12-11T07:31:47;99049.45;;;-1.01;100.00
52511;BME280;63918;51.700;17.998;2022-12-11T07:34:14;99050.41;;;-1.05;100.00
52511;BME280;63918;51.700;17.998;2022-12-11T07:36:42;99050.48;;;-1.09;100.00
52511;BME280;63918;51.700;17.998;2022-12-11T07:39:10;99050.33;;;-1.09;100.00
52511;BME280;63918;51.700;17.998;2022-12-11T07:41:38;99052.80;;;-0.98;100.00
52511;BME280;63918;51.700;17.998;2022-12-11T07:44:05;99051.42;;;-1.01;100.00
52511;BME280;63918;51.700;17.998;2022-12-11T07:46:32;99052.02;;;-1.05;100.00
52511;BME280;63918;51.700;17.998;2022-12-11T07:48:59;99057.65;;;-1.08;100.00
52511;BME280;63918;51.700;17.998;2022-12-11T07:51:28;99053.33;;;-1.06;100.00
52511;BME280;63918;51.700;17.998;2022-12-11T07:54:01;99056.58;;;-1.01;100.00
52511;BME280;63918;51.700;17.998;2022-12-11T07:56:29;99054.77;;;-1.01;100.00
52511;BME280;63918;51.700;17.998;2022-12-11T07:58:58;99055.65;;;-0.97;100.00
52511;BME280;63918;51.700;17.998;2022-12-11T08:01:27;99053.92;;;-1.01;100.00
52511;BME280;63918;51.700;17.998;2022-12-11T08:03:54;99061.27;;;-0.80;100.00
52511;BME280;63918;51.700;17.998;2022-12-11T08:06:27;99062.92;;;-0.80;100.00
52511;BME280;63918;51.700;17.998;2022-12-11T08:08:54;99055.72;;;-0.94;100.00
52511;BME280;63918;51.700;17.998;2022-12-11T08:11:22;99056.29;;;-1.07;100.00
52511;BME280;63918;51.700;17.998;2022-12-11T08:13:48;99058.29;;;-1.13;100.00
52511;BME280;63918;51.700;17.998;2022-12-11T08:16:15;99057.78;;;-0.98;100.00
52511;BME280;63918;51.700;17.998;2022-12-11T08:18:43;99061.55;;;-0.86;100.00
52511;BME280;63918;51.700;17.998;2022-12-11T08:21:15;99064.53;;;-0.87;100.00
52511;BME280;63918;51.700;17.998;2022-12-11T08:23:42;99056.30;;;-0.97;100.00
52511;BME280;63918;51.700;17.998;2022-12-11T08:26:12;99056.41;;;-0.97;100.00
52511;BME280;63918;51.700;17.998;2022-12-11T08:28:40;99058.29;;;-0.98;100.00
52511;BME280;63918;51.700;17.998;2022-12-11T08:31:07;99059.07;;;-1.11;100.00
52511;BME280;63918;51.700;17.998;2022-12-11T08:33:36;99059.18;;;-1.18;100.00
52511;BME280;63918;51.700;17.998;2022-12-11T08:36:08;99054.14;;;-1.15;100.00
52511;BME280;63918;51.700;17.998;2022-12-11T08:38:37;99048.43;;;-1.04;100.00
52511;BME280;63918;51.700;17.998;2022-12-11T08:43:37;99046.62;;;-1.01;100.00
52511;BME280;63918;51.700;17.998;2022-12-11T08:46:04;99040.27;;;-1.11;100.00
52511;BME280;63918;51.700;17.998;2022-12-11T08:48:30;99036.55;;;-1.06;100.00
52511;BME280;63918;51.700;17.998;2022-12-11T08:51:03;99037.46;;;-1.03;100.00
52511;BME280;63918;51.700;17.998;2022-12-11T08:53:30;99039.79;;;-1.27;100.00
52511;BME280;63918;51.700;17.998;2022-12-11T08:56:11;99041.76;;;-1.34;100.00
52511;BME280;63918;51.700;17.998;2022-12-11T08:58:38;99026.52;;;-1.25;100.00
52511;BME280;63918;51.700;17.998;2022-12-11T09:01:16;99043.73;;;-1.13;100.00
52511;BME280;63918;51.700;17.998;2022-12-11T09:03:43;99041.61;;;-1.20;100.00
52511;BME280;63918;51.700;17.998;2022-12-11T09:06:12;99040.11;;;-1.20;100.00
52511;BME280;63918;51.700;17.998;2022-12-11T09:08:40;99035.91;;;-1.28;100.00
52511;BME280;63918;51.700;17.998;2022-12-11T09:11:12;99029.97;;;-1.14;100.00
52511;BME280;63918;51.700;17.998;2022-12-11T09:13:41;99033.36;;;-1.07;100.00
52511;BME280;63918;51.700;17.998;2022-12-11T09:16:16;99021.87;;;-1.07;99.99
52511;BME280;63918;51.700;17.998;2022-12-11T09:18:45;99021.80;;;-1.12;100.00
52511;BME280;63918;51.700;17.998;2022-12-11T09:21:14;99018.86;;;-0.86;100.00
52511;BME280;63918;51.700;17.998;2022-12-11T09:23:41;99015.73;;;-0.74;99.51
52511;BME280;63918;51.700;17.998;2022-12-11T09:26:10;99011.80;;;-0.76;98.24
52511;BME280;63918;51.700;17.998;2022-12-11T09:28:37;99007.52;;;-0.87;98.19
52511;BME280;63918;51.700;17.998;2022-12-11T09:31:13;99004.08;;;-0.89;99.51
52511;BME280;63918;51.700;17.998;2022-12-11T09:33:39;99004.25;;;-0.83;99.84
52511;BME280;63918;51.700;17.998;2022-12-11T09:36:07;98998.98;;;-0.80;99.45
52511;BME280;63918;51.700;17.998;2022-12-11T09:38:33;98996.10;;;-0.76;99.39
52511;BME280;63918;51.700;17.998;2022-12-11T09:41:14;98999.15;;;-0.72;99.03
52511;BME280;63918;51.700;17.998;2022-12-11T09:43:53;98996.20;;;-0.68;99.30
52511;BME280;63918;51.700;17.998;2022-12-11T09:46:25;98995.88;;;-0.89;99.53
52511;BME280;63918;51.700;17.998;2022-12-11T09:48:52;98991.45;;;-0.99;99.81
52511;BME280;63918;51.700;17.998;2022-12-11T09:51:42;98986.42;;;-1.00;99.44
52511;BME280;63918;51.700;17.998;2022-12-11T09:54:12;98980.62;;;-0.87;99.88
52511;BME280;63918;51.700;17.998;2022-12-11T09:56:52;98975.78;;;-0.81;98.86
52511;BME280;63918;51.700;17.998;2022-12-11T10:02:02;98974.12;;;-0.79;98.38
52511;BME280;63918;51.700;17.998;2022-12-11T10:04:53;98972.30;;;-0.71;98.50
52511;BME280;63918;51.700;17.998;2022-12-11T10:07:42;98971.18;;;-0.76;98.46
52511;BME280;63918;51.700;17.998;2022-12-11T10:12:49;98955.70;;;-1.21;100.00
52511;BME280;63918;51.700;17.998;2022-12-11T10:15:28;98965.84;;;-1.02;100.00
52511;BME280;63918;51.700;17.998;2022-12-11T10:18:01;98958.11;;;-1.05;99.69
52511;BME280;63918;51.700;17.998;2022-12-11T10:20:31;98960.66;;;-1.13;99.68
52511;BME280;63918;51.700;17.998;2022-12-11T10:23:02;98961.53;;;-0.90;99.96
52511;BME280;63918;51.700;17.998;2022-12-11T10:25:31;98957.53;;;-0.95;99.66
52511;BME280;63918;51.700;17.998;2022-12-11T10:28:18;98958.77;;;-0.89;99.72
52511;BME280;63918;51.700;17.998;2022-12-11T10:30:57;98952.57;;;-0.90;99.72
52511;BME280;63918;51.700;17.998;2022-12-11T10:33:56;98947.10;;;-1.06;99.45
52511;BME280;63918;51.700;17.998;2022-12-11T10:36:29;98949.73;;;-1.00;99.37
52511;BME280;63918;51.700;17.998;2022-12-11T10:38:56;98949.02;;;-1.05;99.40
52511;BME280;63918;51.700;17.998;2022-12-11T10:41:36;98951.07;;;-1.18;99.80
52511;BME280;63918;51.700;17.998;2022-12-11T10:44:18;98949.71;;;-1.12;100.00
52511;BME280;63918;51.700;17.998;2022-12-11T10:46:47;98944.25;;;-1.09;99.94
52511;BME280;63918;51.700;17.998;2022-12-11T10:49:27;98946.48;;;-0.96;99.82
52511;BME280;63918;51.700;17.998;2022-12-11T10:51:55;98940.70;;;-0.88;99.77
52511;BME280;63918;51.700;17.998;2022-12-11T10:56:49;98939.56;;;-0.69;98.94
52511;BME280;63918;51.700;17.998;2022-12-11T11:02:24;98933.06;;;-0.74;99.19
52511;BME280;63918;51.700;17.998;2022-12-11T11:04:53;98928.20;;;-0.77;99.00
52511;BME280;63918;51.700;17.998;2022-12-11T11:07:27;98924.98;;;-0.78;99.19
52511;BME280;63918;51.700;17.998;2022-12-11T11:10:14;98919.10;;;-0.84;99.36
52511;BME280;63918;51.700;17.998;2022-12-11T11:12:45;98915.60;;;-0.91;99.78
52511;BME280;63918;51.700;17.998;2022-12-11T11:15:17;98912.61;;;-0.89;100.00
52511;BME280;63918;51.700;17.998;2022-12-11T11:17:52;98905.46;;;-1.05;100.00
52511;BME280;63918;51.700;17.998;2022-12-11T11:20:25;98899.21;;;-1.22;100.00
52511;BME280;63918;51.700;17.998;2022-12-11T11:22:55;98899.56;;;-1.36;100.00
52511;BME280;63918;51.700;17.998;2022-12-11T11:25:24;98898.77;;;-1.28;100.00
52511;BME280;63918;51.700;17.998;2022-12-11T11:27:54;98893.64;;;-1.31;100.00
52511;BME280;63918;51.700;17.998;2022-12-11T11:30:27;98894.20;;;-1.38;100.00
52511;BME280;63918;51.700;17.998;2022-12-11T11:33:01;98891.76;;;-1.34;100.00
52511;BME280;63918;51.700;17.998;2022-12-11T11:35:30;98898.28;;;-1.33;100.00
52511;BME280;63918;51.700;17.998;2022-12-11T11:41:16;98891.20;;;-1.15;100.00
52511;BME280;63918;51.700;17.998;2022-12-11T11:43:50;98892.24;;;-1.22;100.00
52511;BME280;63918;51.700;17.998;2022-12-11T11:46:31;98897.21;;;-1.18;100.00
52511;BME280;63918;51.700;17.998;2022-12-11T11:49:27;98893.90;;;-1.16;100.00
52511;BME280;63918;51.700;17.998;2022-12-11T11:52:11;98901.59;;;-1.28;100.00
52511;BME280;63918;51.700;17.998;2022-12-11T11:57:36;98901.95;;;-1.38;100.00
52511;BME280;63918;51.700;17.998;2022-12-11T12:00:14;98897.80;;;-1.43;100.00
52511;BME280;63918;51.700;17.998;2022-12-11T12:02:42;98891.92;;;-1.41;100.00
52511;BME280;63918;51.700;17.998;2022-12-11T12:05:12;98886.92;;;-1.26;100.00
52511;BME280;63918;51.700;17.998;2022-12-11T12:07:59;98884.69;;;-1.31;100.00
52511;BME280;63918;51.700;17.998;2022-12-11T12:11:17;98886.78;;;-1.25;100.00
52511;BME280;63918;51.700;17.998;2022-12-11T12:13:58;98887.23;;;-1.37;100.00
52511;BME280;63918;51.700;17.998;2022-12-11T12:16:48;98887.34;;;-1.27;100.00
52511;BME280;63918;51.700;17.998;2022-12-11T12:21:53;98886.23;;;-1.61;100.00
52511;BME280;63918;51.700;17.998;2022-12-11T12:24:32;98879.95;;;-1.46;100.00
52511;BME280;63918;51.700;17.998;2022-12-11T12:35:12;98879.32;;;-2.09;100.00
52511;BME280;63918;51.700;17.998;2022-12-11T12:46:28;98868.14;;;-2.10;100.00
52511;BME280;63918;51.700;17.998;2022-12-11T12:49:00;98859.81;;;-2.13;100.00
52511;BME280;63918;51.700;17.998;2022-12-11T12:51:28;98861.96;;;-1.99;100.00
52511;BME280;63918;51.700;17.998;2022-12-11T12:54:02;98859.41;;;-1.82;100.00
52511;BME280;63918;51.700;17.998;2022-12-11T12:56:30;98852.71;;;-1.72;100.00
52511;BME280;63918;51.700;17.998;2022-12-11T12:58:58;98851.44;;;-1.53;100.00
52511;BME280;63918;51.700;17.998;2022-12-11T13:01:26;98847.70;;;-1.50;100.00
52511;BME280;63918;51.700;17.998;2022-12-11T13:04:04;98844.14;;;-1.52;100.00
52511;BME280;63918;51.700;17.998;2022-12-11T13:06:40;98844.54;;;-1.47;100.00
52511;BME280;63918;51.700;17.998;2022-12-11T13:09:29;98843.08;;;-1.63;100.00
52511;BME280;63918;51.700;17.998;2022-12-11T13:11:56;98843.39;;;-1.55;100.00
52511;BME280;63918;51.700;17.998;2022-12-11T13:14:27;98839.21;;;-1.54;100.00
52511;BME280;63918;51.700;17.998;2022-12-11T13:17:20;98845.39;;;-1.64;100.00
52511;BME280;63918;51.700;17.998;2022-12-11T13:19:49;98847.11;;;-1.66;100.00
52511;BME280;63918;51.700;17.998;2022-12-11T13:22:22;98850.60;;;-1.73;100.00
52511;BME280;63918;51.700;17.998;2022-12-11T13:27:36;98850.89;;;-1.73;100.00
52511;BME280;63918;51.700;17.998;2022-12-11T13:30:28;98851.16;;;-1.77;100.00
52511;BME280;63918;51.700;17.998;2022-12-11T13:33:00;98852.10;;;-1.78;100.00
52511;BME280;63918;51.700;17.998;2022-12-11T13:35:29;98850.69;;;-1.89;100.00
52511;BME280;63918;51.700;17.998;2022-12-11T13:38:02;98851.05;;;-1.91;100.00
52511;BME280;63918;51.700;17.998;2022-12-11T13:40:39;98846.39;;;-1.98;100.00
52511;BME280;63918;51.700;17.998;2022-12-11T13:43:16;98849.27;;;-1.88;100.00
52511;BME280;63918;51.700;17.998;2022-12-11T13:45:50;98846.77;;;-1.88;100.00
52511;BME280;63918;51.700;17.998;2022-12-11T13:48:24;98842.68;;;-1.94;100.00
52511;BME280;63918;51.700;17.998;2022-12-11T13:50:53;98846.91;;;-1.84;100.00